createdAt,value
2018-02-22T00:00:38.576Z,-0.80
2018-02-22T00:03:04.814Z,-0.80
2018-02-22T00:05:31.787Z,-0.70
2018-02-22T00:07:58.008Z,-0.70
2018-02-22T00:10:24.976Z,-0.80
2018-02-22T00:12:51.213Z,-0.80
2018-02-22T00:15:17.434Z,-0.80
2018-02-22T00:17:44.399Z,-0.80
2018-02-22T00:20:11.349Z,-0.80
2018-02-22T00:22:38.315Z,-0.80
2018-02-22T00:25:05.295Z,-0.80
2018-02-22T00:27:31.539Z,-0.80
2018-02-22T00:29:57.770Z,-0.80
2018-02-22T00:32:24.011Z,-0.80
2018-02-22T00:34:50.247Z,-0.80
2018-02-22T00:37:16.494Z,-0.80
2018-02-22T00:39:42.705Z,-0.90
2018-02-22T00:42:08.918Z,-0.90
2018-02-22T00:44:35.142Z,-0.90
2018-02-22T00:47:01.361Z,-0.80
2018-02-22T00:49:27.863Z,-0.80
2018-02-22T00:51:54.101Z,-0.80
2018-02-22T00:54:20.323Z,-0.80
2018-02-22T00:56:46.531Z,-0.80
2018-02-22T00:59:12.749Z,-0.80
2018-02-22T01:01:39.719Z,-0.80
2018-02-22T01:04:05.933Z,-0.80
2018-02-22T01:06:32.155Z,-0.80
2018-02-22T01:08:58.368Z,-0.80
2018-02-22T01:11:24.591Z,-0.80
2018-02-22T01:13:50.817Z,-0.80
2018-02-22T01:16:17.022Z,-0.80
2018-02-22T01:18:43.238Z,-0.90
2018-02-22T01:21:09.447Z,-0.90
2018-02-22T01:23:35.698Z,-0.90
2018-02-22T01:26:01.921Z,-0.90
2018-02-22T01:28:28.136Z,-0.90
2018-02-22T01:30:55.108Z,-0.90
2018-02-22T01:33:22.064Z,-0.80
2018-02-22T01:35:49.064Z,-0.90
2018-02-22T01:38:15.287Z,-0.90
2018-02-22T01:40:41.668Z,-0.80
2018-02-22T01:43:07.887Z,-0.90
2018-02-22T01:45:34.078Z,-0.80
2018-02-22T01:48:01.060Z,-0.80
2018-02-22T01:50:27.285Z,-0.80
2018-02-22T01:52:53.812Z,-0.80
2018-02-22T01:55:20.016Z,-0.80
2018-02-22T01:57:46.555Z,-0.80
2018-02-22T02:00:12.794Z,-0.80
2018-02-22T02:02:39.002Z,-0.80
2018-02-22T02:05:05.216Z,-0.80
2018-02-22T02:07:31.409Z,-0.80
2018-02-22T02:09:57.648Z,-0.80
2018-02-22T02:12:23.842Z,-0.80
2018-02-22T02:14:50.058Z,-0.90
2018-02-22T02:17:16.261Z,-0.90
2018-02-22T02:19:42.480Z,-0.90
2018-02-22T02:22:08.712Z,-0.90
2018-02-22T02:24:34.892Z,-0.90
2018-02-22T02:27:01.116Z,-0.90
2018-02-22T02:29:27.321Z,-0.90
2018-02-22T02:31:54.308Z,-0.90
2018-02-22T02:34:20.517Z,-1.00
2018-02-22T02:36:47.462Z,-1.00
2018-02-22T02:39:13.671Z,-1.00
2018-02-22T02:41:39.867Z,-1.00
2018-02-22T02:44:06.828Z,-1.00
2018-02-22T02:46:33.784Z,-1.10
2018-02-22T02:49:00.748Z,-1.10
2018-02-22T02:51:26.996Z,-1.10
2018-02-22T02:53:53.205Z,-1.10
2018-02-22T02:56:19.431Z,-1.10
2018-02-22T02:58:45.635Z,-1.20
2018-02-22T03:01:11.871Z,-1.20
2018-02-22T03:03:38.082Z,-1.10
2018-02-22T03:06:05.043Z,-1.20
2018-02-22T03:08:31.247Z,-1.20
2018-02-22T03:10:57.765Z,-1.20
2018-02-22T03:13:23.955Z,-1.20
2018-02-22T03:15:50.898Z,-1.30
2018-02-22T03:18:17.139Z,-1.30
2018-02-22T03:20:43.358Z,-1.30
2018-02-22T03:23:09.609Z,-1.20
2018-02-22T03:25:35.826Z,-1.30
2018-02-22T03:28:02.053Z,-1.30
2018-02-22T03:30:28.289Z,-1.30
2018-02-22T03:32:54.487Z,-1.30
2018-02-22T03:35:20.705Z,-1.30
2018-02-22T03:37:46.931Z,-1.30
2018-02-22T03:40:13.896Z,-1.30
2018-02-22T03:42:40.107Z,-1.30
2018-02-22T03:45:06.342Z,-1.30
2018-02-22T03:47:32.559Z,-1.30
2018-02-22T03:49:59.521Z,-1.40
2018-02-22T03:52:26.495Z,-1.40
2018-02-22T03:54:52.695Z,-1.40
2018-02-22T03:57:18.939Z,-1.40
2018-02-22T03:59:45.155Z,-1.40
2018-02-22T04:02:11.376Z,-1.40
2018-02-22T04:04:37.608Z,-1.40
2018-02-22T04:07:03.843Z,-1.40
2018-02-22T04:09:30.071Z,-1.40
2018-02-22T04:11:56.300Z,-1.40
2018-02-22T04:14:23.261Z,-1.40
2018-02-22T04:16:50.225Z,-1.40
2018-02-22T04:19:16.474Z,-1.40
2018-02-22T04:21:42.741Z,-1.40
2018-02-22T04:24:08.948Z,-1.40
2018-02-22T04:26:35.156Z,-1.40
2018-02-22T04:29:01.358Z,-1.50
2018-02-22T04:31:27.577Z,-1.50
2018-02-22T04:33:53.820Z,-1.50
2018-02-22T04:36:20.043Z,-1.40
2018-02-22T04:38:46.256Z,-1.40
2018-02-22T04:41:13.195Z,-1.40
2018-02-22T04:43:39.753Z,-1.40
2018-02-22T04:46:05.980Z,-1.40
2018-02-22T04:48:32.192Z,-1.40
2018-02-22T04:50:58.421Z,-1.50
2018-02-22T04:53:24.639Z,-1.50
2018-02-22T04:55:51.617Z,-1.50
2018-02-22T04:58:17.820Z,-1.50
2018-02-22T05:00:44.044Z,-1.50
2018-02-22T05:03:10.244Z,-1.50
2018-02-22T05:05:36.451Z,-1.50
2018-02-22T05:08:02.699Z,-1.50
2018-02-22T05:10:28.920Z,-1.50
2018-02-22T05:12:55.471Z,-1.60
2018-02-22T05:15:22.420Z,0.50
2018-02-22T05:17:48.632Z,0.50
2018-02-22T05:20:14.859Z,1.20
2018-02-22T05:22:41.074Z,0.90
2018-02-22T05:25:07.305Z,0.50
2018-02-22T05:27:33.495Z,0.00
2018-02-22T05:29:59.724Z,-0.40
2018-02-22T05:32:25.928Z,-0.70
2018-02-22T05:34:52.140Z,-0.90
2018-02-22T05:37:18.366Z,-1.10
2018-02-22T05:39:44.568Z,-1.20
2018-02-22T05:42:10.783Z,-1.30
2018-02-22T05:44:37.759Z,-1.40
2018-02-22T05:47:03.975Z,-1.40
2018-02-22T05:49:30.916Z,-0.90
2018-02-22T05:51:57.159Z,-0.90
2018-02-22T05:54:24.110Z,0.00
2018-02-22T05:56:50.330Z,0.00
2018-02-22T05:59:16.559Z,0.20
2018-02-22T06:01:42.807Z,0.30
2018-02-22T06:04:09.034Z,0.50
2018-02-22T06:06:35.263Z,0.50
2018-02-22T06:09:01.467Z,0.20
2018-02-22T06:11:28.434Z,-0.50
2018-02-22T06:13:54.662Z,-0.50
2018-02-22T06:16:21.627Z,-1.00
2018-02-22T06:18:48.603Z,-1.20
2018-02-22T06:21:14.831Z,-1.20
2018-02-22T06:23:41.807Z,-1.30
2018-02-22T06:26:08.028Z,-1.30
2018-02-22T06:28:35.012Z,-1.40
2018-02-22T06:31:01.234Z,-1.40
2018-02-22T06:33:27.444Z,-1.40
2018-02-22T06:35:53.684Z,-1.40
2018-02-22T06:38:20.663Z,-1.50
2018-02-22T06:40:47.634Z,-1.40
2018-02-22T06:43:13.856Z,-1.50
2018-02-22T06:45:40.830Z,-1.20
2018-02-22T06:48:07.068Z,-1.20
2018-02-22T06:50:33.308Z,-1.10
2018-02-22T06:52:59.518Z,-1.10
2018-02-22T06:55:25.737Z,-1.10
2018-02-22T06:57:51.957Z,-1.20
2018-02-22T07:00:18.172Z,-1.30
2018-02-22T07:02:44.382Z,-1.30
2018-02-22T07:05:11.341Z,-1.40
2018-02-22T07:07:37.576Z,-1.40
2018-02-22T07:10:03.820Z,-1.40
2018-02-22T07:12:30.803Z,-1.50
2018-02-22T07:14:57.067Z,-1.50
2018-02-22T07:17:23.280Z,-1.40
2018-02-22T07:19:49.524Z,-1.40
2018-02-22T07:22:15.746Z,-1.40
2018-02-22T07:24:42.746Z,-1.40
2018-02-22T07:27:08.978Z,-1.40
2018-02-22T07:29:35.191Z,-1.40
2018-02-22T07:32:01.505Z,-1.40
2018-02-22T07:34:27.738Z,-1.40
2018-02-22T07:36:53.972Z,-1.30
2018-02-22T07:39:20.204Z,-0.50
2018-02-22T07:41:46.433Z,0.60
2018-02-22T07:44:12.676Z,1.40
2018-02-22T07:46:38.907Z,1.60
2018-02-22T07:49:05.133Z,1.70
2018-02-22T07:51:32.129Z,0.80
2018-02-22T07:53:58.367Z,0.80
2018-02-22T07:56:24.621Z,0.30
2018-02-22T07:58:50.854Z,-0.10
2018-02-22T08:01:17.138Z,-0.50
2018-02-22T08:03:43.355Z,-0.70
2018-02-22T08:06:09.582Z,-0.80
2018-02-22T08:08:35.831Z,-0.90
2018-02-22T08:11:02.058Z,-1.00
2018-02-22T08:13:28.310Z,-1.10
2018-02-22T08:15:54.544Z,-1.10
2018-02-22T08:18:20.774Z,-1.20
2018-02-22T08:20:47.019Z,-1.30
2018-02-22T08:23:13.260Z,-1.30
2018-02-22T08:25:39.478Z,-1.30
2018-02-22T08:28:05.694Z,-1.30
2018-02-22T08:30:31.928Z,-1.30
2018-02-22T08:32:58.153Z,-1.30
2018-02-22T08:35:25.133Z,-1.40
2018-02-22T08:37:51.366Z,-1.50
2018-02-22T08:40:18.354Z,-1.40
2018-02-22T08:42:44.751Z,-1.50
2018-02-22T08:45:11.722Z,-1.40
2018-02-22T08:47:37.945Z,-1.40
2018-02-22T08:50:04.168Z,-1.40
2018-02-22T08:52:30.398Z,-1.30
2018-02-22T08:54:56.638Z,-1.30
2018-02-22T08:57:22.846Z,-1.30
2018-02-22T08:59:49.088Z,-1.30
2018-02-22T09:02:15.326Z,-1.20
2018-02-22T09:04:41.534Z,-1.10
2018-02-22T09:07:08.504Z,-1.00
2018-02-22T09:09:35.463Z,-0.90
2018-02-22T09:12:01.696Z,-0.90
2018-02-22T09:14:28.656Z,-0.70
2018-02-22T09:16:55.621Z,-0.70
2018-02-22T09:19:21.834Z,-0.70
2018-02-22T09:21:48.100Z,-0.70
2018-02-22T09:24:14.322Z,-0.70
2018-02-22T09:26:41.292Z,-0.70
2018-02-22T09:29:08.282Z,-0.70
2018-02-22T09:31:34.528Z,-0.70
2018-02-22T09:34:00.748Z,-0.70
2018-02-22T09:36:27.013Z,-0.70
2018-02-22T09:38:53.271Z,-0.70
2018-02-22T09:41:19.521Z,-0.80
2018-02-22T09:43:46.560Z,-0.90
2018-02-22T09:46:12.812Z,-0.90
2018-02-22T09:48:39.104Z,-0.90
2018-02-22T09:51:05.438Z,-1.00
2018-02-22T09:53:31.689Z,-1.10
2018-02-22T09:55:57.931Z,-1.10
2018-02-22T09:58:24.212Z,-1.10
2018-02-22T10:00:50.445Z,-1.10
2018-02-22T10:03:16.715Z,-1.20
2018-02-22T10:05:42.925Z,-1.20
2018-02-22T10:08:09.171Z,-1.30
2018-02-22T10:10:35.400Z,-1.30
2018-02-22T10:13:01.659Z,-1.30
2018-02-22T10:15:27.869Z,-1.20
2018-02-22T10:17:54.066Z,-1.20
2018-02-22T10:20:21.141Z,-1.20
2018-02-22T10:22:48.109Z,-1.20
2018-02-22T10:25:14.329Z,-1.20
2018-02-22T10:27:40.549Z,-1.10
2018-02-22T10:30:06.809Z,-1.10
2018-02-22T10:32:33.769Z,-1.10
2018-02-22T10:35:00.750Z,-1.10
2018-02-22T10:37:26.977Z,-1.10
2018-02-22T10:39:53.920Z,-1.00
2018-02-22T10:42:20.143Z,-1.00
2018-02-22T10:44:46.406Z,-1.00
2018-02-22T10:47:12.645Z,-1.00
2018-02-22T10:49:39.598Z,-0.90
2018-02-22T10:52:05.803Z,-1.00
2018-02-22T10:54:32.073Z,-0.90
2018-02-22T10:56:59.059Z,-0.90
2018-02-22T10:59:25.289Z,-0.90
2018-02-22T11:01:58.402Z,-0.80
2018-02-22T11:04:24.627Z,-0.80
2018-02-22T11:06:51.570Z,-0.70
2018-02-22T11:09:17.809Z,-0.80
2018-02-22T11:11:46.304Z,-0.70
2018-02-22T11:14:12.540Z,-0.70
2018-02-22T11:16:40.247Z,-0.70
2018-02-22T11:19:06.462Z,-0.70
2018-02-22T11:21:32.674Z,-0.60
2018-02-22T11:23:58.875Z,-0.50
2018-02-22T11:26:25.114Z,-0.50
2018-02-22T11:28:51.371Z,-0.40
2018-02-22T11:31:17.602Z,-0.30
2018-02-22T11:33:43.830Z,-0.30
2018-02-22T11:36:10.069Z,-0.30
2018-02-22T11:38:36.321Z,-0.30
2018-02-22T11:41:02.548Z,-0.30
2018-02-22T11:43:29.062Z,-0.30
2018-02-22T11:45:55.296Z,-0.20
2018-02-22T11:48:21.547Z,-0.10
2018-02-22T11:50:47.819Z,-0.10
2018-02-22T11:53:14.045Z,-0.10
2018-02-22T11:55:41.032Z,-0.20
2018-02-22T11:58:07.252Z,-0.30
2018-02-22T12:00:34.236Z,-0.30
2018-02-22T12:03:00.473Z,-0.30
2018-02-22T12:05:26.680Z,-0.30
2018-02-22T12:07:53.648Z,-0.30
2018-02-22T12:10:19.867Z,-0.30
2018-02-22T12:12:46.080Z,-0.30
2018-02-22T12:15:12.330Z,-0.30
2018-02-22T12:17:38.544Z,-0.30
2018-02-22T12:20:04.788Z,-0.40
2018-02-22T12:22:31.007Z,-0.40
2018-02-22T12:24:57.248Z,-0.40
2018-02-22T12:27:23.471Z,-0.40
2018-02-22T12:29:50.461Z,-0.40
2018-02-22T12:32:16.701Z,-0.40
2018-02-22T12:34:42.954Z,-0.50
2018-02-22T12:37:09.181Z,-0.50
2018-02-22T12:39:35.395Z,-0.60
2018-02-22T12:42:01.896Z,-0.60
2018-02-22T12:44:28.123Z,-0.50
2018-02-22T12:46:54.359Z,-0.50
2018-02-22T12:49:20.607Z,-0.40
2018-02-22T12:51:46.823Z,-0.40
2018-02-22T12:54:13.079Z,-0.30
2018-02-22T12:56:39.298Z,-0.40
2018-02-22T12:59:05.556Z,-0.30
2018-02-22T13:01:31.783Z,-0.20
2018-02-22T13:03:58.025Z,-0.10
2018-02-22T13:06:24.277Z,0.00
2018-02-22T13:08:50.507Z,0.10
2018-02-22T13:11:16.740Z,0.00
2018-02-22T13:13:42.969Z,0.00
2018-02-22T13:16:09.278Z,-0.10
2018-02-22T13:18:35.499Z,-0.20
2018-02-22T13:21:01.765Z,-0.30
2018-02-22T13:23:28.009Z,-0.30
2018-02-22T13:25:54.999Z,-0.40
2018-02-22T13:28:21.246Z,-0.40
2018-02-22T13:30:47.491Z,-0.50
2018-02-22T13:33:26.199Z,-0.50
2018-02-22T13:35:52.432Z,-0.50
2018-02-22T13:38:31.581Z,0.00
2018-02-22T13:40:57.809Z,0.00
2018-02-22T13:43:24.064Z,1.70
2018-02-22T13:45:51.044Z,2.10
2018-02-22T13:48:17.314Z,2.10
2018-02-22T13:50:55.793Z,1.40
2018-02-22T13:53:22.819Z,0.30
2018-02-22T13:55:49.061Z,0.30
2018-02-22T13:58:15.276Z,0.10
2018-02-22T14:00:53.649Z,-0.10
2018-02-22T14:03:20.617Z,-0.20
2018-02-22T14:05:46.882Z,-0.20
2018-02-22T14:08:25.281Z,-0.20
2018-02-22T14:10:51.548Z,-0.30
2018-02-22T14:13:17.851Z,-0.40
2018-02-22T14:15:44.174Z,-0.40
2018-02-22T14:18:10.519Z,-0.50
2018-02-22T14:20:36.818Z,-0.50
2018-02-22T14:23:03.071Z,-0.50
2018-02-22T14:25:29.314Z,-0.60
2018-02-22T14:27:55.563Z,-0.60
2018-02-22T14:30:21.818Z,-0.70
2018-02-22T14:32:48.080Z,-0.70
2018-02-22T14:35:14.333Z,-0.80
2018-02-22T14:37:41.351Z,-0.80
2018-02-22T14:40:07.606Z,-0.80
2018-02-22T14:42:33.862Z,-0.80
2018-02-22T14:45:00.146Z,-0.80
2018-02-22T14:47:26.383Z,-0.90
2018-02-22T14:49:52.645Z,-0.90
2018-02-22T14:52:18.886Z,-1.00
2018-02-22T14:54:45.160Z,-1.00
2018-02-22T14:57:11.425Z,-1.00
2018-02-22T14:59:38.419Z,-1.00
2018-02-22T15:02:04.687Z,-1.00
2018-02-22T15:04:30.913Z,-1.00
2018-02-22T15:06:57.167Z,-1.00
2018-02-22T15:09:23.401Z,-1.00
2018-02-22T15:11:49.623Z,-1.00
2018-02-22T15:14:15.862Z,-1.00
2018-02-22T15:16:42.122Z,-1.00
2018-02-22T15:19:08.331Z,-1.00
2018-02-22T15:21:34.581Z,-1.00
2018-02-22T15:24:00.806Z,-1.00
2018-02-22T15:26:27.018Z,-1.00
2018-02-22T15:28:54.053Z,-1.00
2018-02-22T15:31:20.304Z,-1.00
2018-02-22T15:33:46.566Z,-1.00
2018-02-22T15:36:13.527Z,-1.00
2018-02-22T15:38:40.517Z,-1.00
2018-02-22T15:41:07.481Z,-1.10
2018-02-22T15:43:34.467Z,-1.10
2018-02-22T15:46:00.700Z,-1.10
2018-02-22T15:48:26.986Z,-1.10
2018-02-22T15:50:53.215Z,-1.20
2018-02-22T15:53:20.222Z,-1.20
2018-02-22T15:55:46.467Z,-1.20
2018-02-22T15:58:12.712Z,-1.20
2018-02-22T16:00:38.949Z,-1.20
2018-02-22T16:03:05.178Z,-1.30
2018-02-22T16:05:31.414Z,-1.30
2018-02-22T16:07:57.639Z,-1.30
2018-02-22T16:10:23.880Z,-1.30
2018-02-22T16:12:50.100Z,-1.40
2018-02-22T16:15:17.443Z,-1.40
2018-02-22T16:17:43.674Z,-1.40
2018-02-22T16:20:09.901Z,-1.40
2018-02-22T16:22:36.142Z,-1.50
2018-02-22T16:25:02.369Z,-1.50
2018-02-22T16:27:28.636Z,-1.50
2018-02-22T16:29:54.846Z,-1.50
2018-02-22T16:32:21.092Z,-1.50
2018-02-22T16:34:47.362Z,-1.60
2018-02-22T16:37:13.618Z,-1.60
2018-02-22T16:39:39.849Z,-1.60
2018-02-22T16:42:06.056Z,-1.60
2018-02-22T16:44:33.042Z,-1.70
2018-02-22T16:46:59.274Z,-1.60
2018-02-22T16:49:25.514Z,-1.60
2018-02-22T16:51:51.765Z,-1.70
2018-02-22T16:54:18.036Z,-1.70
2018-02-22T16:56:45.012Z,-1.80
2018-02-22T16:59:11.254Z,-1.70
2018-02-22T17:01:37.485Z,-1.80
2018-02-22T17:04:03.733Z,-1.80
2018-02-22T17:06:29.996Z,-1.80
2018-02-22T17:08:56.212Z,-1.80
2018-02-22T17:11:22.435Z,-1.80
2018-02-22T17:13:48.670Z,-1.70
2018-02-22T17:16:15.656Z,-1.60
2018-02-22T17:18:41.888Z,-1.70
2018-02-22T17:21:08.125Z,-1.60
2018-02-22T17:23:34.389Z,-1.60
2018-02-22T17:26:06.712Z,-1.70
2018-02-22T17:28:39.066Z,-1.70
2018-02-22T17:31:11.388Z,-1.80
2018-02-22T17:33:38.390Z,-1.80
2018-02-22T17:36:05.646Z,-1.80
2018-02-22T17:38:37.970Z,-1.80
2018-02-22T17:41:14.175Z,-1.90
2018-02-22T17:43:41.186Z,-1.90
2018-02-22T17:46:07.475Z,-1.90
2018-02-22T17:48:34.499Z,-1.90
2018-02-22T17:51:00.739Z,-1.90
2018-02-22T17:53:27.021Z,-1.90
2018-02-22T17:55:53.317Z,-1.90
2018-02-22T17:58:19.663Z,-2.00
2018-02-22T18:00:45.985Z,-2.00
2018-02-22T18:03:12.294Z,-2.00
2018-02-22T18:05:38.544Z,-2.00
2018-02-22T18:08:04.824Z,-2.00
2018-02-22T18:10:31.143Z,-2.00
2018-02-22T18:12:57.378Z,-2.00
2018-02-22T18:15:23.706Z,-2.10
2018-02-22T18:17:50.025Z,-2.10
2018-02-22T18:20:17.057Z,-2.10
2018-02-22T18:22:43.353Z,-2.10
2018-02-22T18:25:09.664Z,-2.10
2018-02-22T18:27:36.834Z,-2.10
2018-02-22T18:30:03.850Z,-2.10
2018-02-22T18:32:30.130Z,-2.20
2018-02-22T18:34:57.136Z,-2.10
2018-02-22T18:37:29.362Z,-2.20
2018-02-22T18:39:55.667Z,-2.20
2018-02-22T18:42:21.981Z,-2.10
2018-02-22T18:44:54.415Z,-2.10
2018-02-22T18:47:20.720Z,-2.20
2018-02-22T18:49:47.047Z,-2.20
2018-02-22T18:52:13.356Z,-2.20
2018-02-22T18:54:39.664Z,-2.20
2018-02-22T18:57:05.963Z,-2.20
2018-02-22T18:59:32.986Z,-2.30
2018-02-22T19:01:59.897Z,-2.30
2018-02-22T19:04:26.200Z,-2.30
2018-02-22T19:06:52.764Z,-2.30
2018-02-22T19:09:19.807Z,-2.30
2018-02-22T19:11:46.121Z,-2.30
2018-02-22T19:14:12.489Z,-2.30
2018-02-22T19:16:38.787Z,-2.30
2018-02-22T19:19:05.170Z,-2.30
2018-02-22T19:21:31.432Z,-2.30
2018-02-22T19:23:58.512Z,-2.30
2018-02-22T19:26:25.438Z,-2.30
2018-02-22T19:28:51.817Z,-2.20
2018-02-22T19:31:18.151Z,-2.00
2018-02-22T19:33:44.458Z,-1.70
2018-02-22T19:36:10.762Z,-1.60
2018-02-22T19:38:37.057Z,-1.40
2018-02-22T19:41:04.100Z,-1.10
2018-02-22T19:43:30.393Z,-1.10
2018-02-22T19:45:56.660Z,-1.10
2018-02-22T19:48:22.961Z,-1.20
2018-02-22T19:50:50.159Z,-1.30
2018-02-22T19:53:16.462Z,-1.50
2018-02-22T19:55:42.730Z,-1.50
2018-02-22T19:58:09.074Z,-1.60
2018-02-22T20:00:36.373Z,-1.70
2018-02-22T20:03:02.696Z,-1.80
2018-02-22T20:05:29.047Z,-1.80
2018-02-22T20:07:55.492Z,-1.80
2018-02-22T20:10:21.825Z,-1.80
2018-02-22T20:12:48.130Z,-1.80
2018-02-22T20:15:14.441Z,-1.80
2018-02-22T20:17:40.866Z,-1.90
2018-02-22T20:20:07.238Z,-1.90
2018-02-22T20:22:33.584Z,-1.90
2018-02-22T20:25:00.649Z,-1.80
2018-02-22T20:27:27.739Z,-1.80
2018-02-22T20:29:54.041Z,-1.80
2018-02-22T20:32:21.105Z,-1.90
2018-02-22T20:34:48.126Z,-1.90
2018-02-22T20:37:14.464Z,-1.90
2018-02-22T20:39:40.745Z,-1.90
2018-02-22T20:42:07.800Z,-1.80
2018-02-22T20:44:35.396Z,-1.90
2018-02-22T20:47:02.414Z,-1.80
2018-02-22T20:49:28.794Z,-1.80
2018-02-22T20:51:55.857Z,-1.80
2018-02-22T20:54:22.943Z,-1.90
2018-02-22T20:56:49.257Z,-1.90
2018-02-22T20:59:16.338Z,-1.90
2018-02-22T21:01:42.655Z,-1.90
2018-02-22T21:04:09.731Z,-1.90
2018-02-22T21:06:36.010Z,-1.90
2018-02-22T21:09:02.345Z,-1.90
2018-02-22T21:11:28.631Z,-1.90
2018-02-22T21:13:54.938Z,-1.90
2018-02-22T21:16:21.281Z,-1.90
2018-02-22T21:18:47.520Z,-2.00
2018-02-22T21:21:13.808Z,-2.00
2018-02-22T21:23:40.814Z,-2.00
2018-02-22T21:26:07.418Z,-1.90
2018-02-22T21:28:34.375Z,-1.90
2018-02-22T21:31:01.361Z,-1.90
2018-02-22T21:33:28.339Z,-1.90
2018-02-22T21:35:55.304Z,-1.90
2018-02-22T21:38:21.555Z,-1.90
2018-02-22T21:40:47.796Z,-1.90
2018-02-22T21:43:14.774Z,-1.90
2018-02-22T21:45:40.994Z,-2.00
2018-02-22T21:48:07.221Z,-1.90
2018-02-22T21:50:33.460Z,-1.90
2018-02-22T21:52:59.682Z,-2.00
2018-02-22T21:55:25.907Z,-1.90
2018-02-22T21:57:52.147Z,-1.90
2018-02-22T22:00:18.425Z,-1.80
2018-02-22T22:02:45.409Z,-1.80
2018-02-22T22:05:11.643Z,-1.80
2018-02-22T22:07:37.892Z,-1.80
2018-02-22T22:10:04.130Z,-1.80
2018-02-22T22:12:30.395Z,-1.80
2018-02-22T22:14:57.347Z,-1.80
2018-02-22T22:17:24.328Z,-1.80
2018-02-22T22:19:50.556Z,-1.80
2018-02-22T22:22:17.553Z,-1.80
2018-02-22T22:24:43.822Z,-1.80
2018-02-22T22:27:10.042Z,-1.80
2018-02-22T22:29:36.299Z,-1.70
2018-02-22T22:32:02.503Z,-1.70
2018-02-22T22:34:28.727Z,-1.70
2018-02-22T22:36:54.947Z,-1.70
2018-02-22T22:39:21.943Z,-1.80
2018-02-22T22:41:48.159Z,-1.80
2018-02-22T22:44:15.149Z,-1.80
2018-02-22T22:46:41.390Z,-1.80
2018-02-22T22:49:07.609Z,-1.80
2018-02-22T22:51:33.851Z,-1.80
2018-02-22T22:54:00.071Z,-1.80
2018-02-22T22:56:27.081Z,-1.80
2018-02-22T22:58:53.270Z,-1.80
2018-02-22T23:01:20.222Z,-1.80
2018-02-22T23:03:47.183Z,-1.80
2018-02-22T23:06:14.118Z,-1.80
2018-02-22T23:08:40.362Z,-1.80
2018-02-22T23:11:06.564Z,-1.80
2018-02-22T23:13:32.791Z,-1.80
2018-02-22T23:15:59.006Z,-1.80
2018-02-22T23:18:25.982Z,-1.70
2018-02-22T23:20:52.214Z,-1.70
2018-02-22T23:23:19.149Z,-1.80
2018-02-22T23:25:45.456Z,-1.80
2018-02-22T23:28:11.672Z,-1.80
2018-02-22T23:30:37.907Z,-1.80
2018-02-22T23:33:04.150Z,-1.80
2018-02-22T23:35:30.417Z,-1.80
2018-02-22T23:37:56.673Z,-1.80
2018-02-22T23:40:39.766Z,-1.80
2018-02-22T23:43:06.006Z,-1.80
2018-02-22T23:45:32.276Z,-1.90
2018-02-22T23:47:58.472Z,-1.90
2018-02-22T23:50:24.724Z,-1.90
2018-02-22T23:52:50.972Z,-1.90
2018-02-22T23:55:17.204Z,-1.90
2018-02-22T23:57:43.432Z,-1.90
